Highland, OH (45132)

3:37 PM EST on December 05, 2016 (GMT -0500)
APRSWXNET | | Change Station

Elev 1024 ft 39.43 °N, 83.55 °W | Updated 48 minutes ago

Clear
Clear
42 °F
Feels Like 39 °F
N
5
Wind Variable Wind from ENE
Gusts 8.0 mph

Today
High -- | Low -- °F
--% Chance of Precip.
Yesterday
High -- | Low -- °F
Precip. -- in
Pressure 30.09 in
Visibility 10.0 miles
Clouds Clear
Windchill 39 °F
Dew Point 35 °F
Humidity 75%
Rainfall in
Snow Depth Not available.
7:39 AM 5:10 PM
Waxing Crescent, 34% visible
METAR KILN 051954Z AUTO 07005KT 10SM CLR 05/01 A3004 RMK AO2 SLP190 T00500006
Pressure 30.09 in
Visibility 10.0 miles
Clouds Clear
Windchill 39 °F
Dew Point 35 °F
Humidity 75%
Rainfall in
Snow Depth Not available.
7:39 AM 5:10 PM
Waxing Crescent, 34% visible
METAR KILN 051954Z AUTO 07005KT 10SM CLR 05/01 A3004 RMK AO2 SLP190 T00500006

10-Day Weather Forecast

Almanac

Astronomy

Dec. 05, 2016 Rise Set
Actual Time
Civil Twilight
Nautical Twilight
Astronomical Twilight
Moon
Length of Visible Light
Length of Day
Tomorrow will be .
, % of the Moon is Illuminated

Today's Extremes

State Highs State Lows

Community

WunderPhotos

Upload Photos

1,955,859 photos uploaded!

WunderBlog® & News

Nearby

Air Quality

  Air Quality AQ Index Pollutant
Not available.

Snow Depth

Station Depth Elevation

Earthquake Activity

City Distance Mag. Time & Date
Minimum magnitude displayed is 2.5.

Coastal Water Temperatures

Place Temperature

Stations

Nearby Weather Stations

Station Location Temp. Windchill Dew Point Humidity Wind Precip. Elev Updated Type
                   

Watches & Warnings

There are currently no watches in effect.